createdAt,value
2023-02-24T00:00:49.566Z,1010.86
2023-02-24T00:01:49.602Z,1010.84
2023-02-24T00:02:49.699Z,1010.84
2023-02-24T00:03:49.995Z,1010.83
2023-02-24T00:04:49.702Z,1010.80
2023-02-24T00:05:49.756Z,1010.76
2023-02-24T00:06:49.734Z,1010.78
2023-02-24T00:07:49.788Z,1010.76
2023-02-24T00:08:49.793Z,1010.74
2023-02-24T00:09:50.134Z,1010.75
2023-02-24T00:10:49.856Z,1010.73
2023-02-24T00:11:49.888Z,1010.76
2023-02-24T00:12:49.911Z,1010.72
2023-02-24T00:13:49.942Z,1010.71
2023-02-24T00:14:49.959Z,1010.71
2023-02-24T00:15:50.353Z,1010.70
2023-02-24T00:16:50.163Z,1010.72
2023-02-24T00:17:50.050Z,1010.67
2023-02-24T00:18:50.071Z,1010.70
2023-02-24T00:19:50.101Z,1010.64
2023-02-24T00:20:50.166Z,1010.67
2023-02-24T00:21:50.161Z,1010.62
2023-02-24T00:22:50.457Z,1010.56
2023-02-24T00:23:50.212Z,1010.60
2023-02-24T00:24:50.258Z,1010.59
2023-02-24T00:25:50.285Z,1010.59
2023-02-24T00:26:50.307Z,1010.57
2023-02-24T00:27:50.340Z,1010.55
2023-02-24T00:28:50.383Z,1010.52
2023-02-24T00:29:50.723Z,1010.52
2023-02-24T00:30:50.485Z,1010.47
2023-02-24T00:31:50.756Z,1010.49
2023-02-24T00:32:50.715Z,1010.45
2023-02-24T00:33:50.512Z,1010.48
2023-02-24T00:34:50.544Z,1010.42
2023-02-24T00:35:50.571Z,1010.45
2023-02-24T00:36:51.174Z,1010.49
2023-02-24T00:37:50.630Z,1010.44
2023-02-24T00:38:50.993Z,1010.45
2023-02-24T00:39:50.787Z,1010.43
2023-02-24T00:40:50.811Z,1010.47
2023-02-24T00:41:50.742Z,1010.45
2023-02-24T00:42:50.767Z,1010.43
2023-02-24T00:43:51.114Z,1010.41
2023-02-24T00:44:50.827Z,1010.39
2023-02-24T00:45:50.862Z,1010.43
2023-02-24T00:46:50.875Z,1010.40
2023-02-24T00:47:50.911Z,1010.35
2023-02-24T00:48:50.939Z,1010.38
2023-02-24T00:49:50.968Z,1010.32
2023-02-24T00:50:51.318Z,1010.28
2023-02-24T00:51:51.029Z,1010.30
2023-02-24T00:52:51.079Z,1010.30
2023-02-24T00:53:51.082Z,1010.29
2023-02-24T00:54:51.120Z,1010.24
2023-02-24T00:55:51.142Z,1010.24
2023-02-24T00:56:51.327Z,1010.19
2023-02-24T00:57:51.500Z,1010.19
2023-02-24T00:58:51.222Z,1010.16
2023-02-24T01:00:51.285Z,1010.16
2023-02-24T01:01:51.500Z,1010.11
2023-02-24T01:02:51.448Z,1010.07
2023-02-24T01:03:51.436Z,1010.02
2023-02-24T01:04:51.705Z,1010.08
2023-02-24T01:05:51.424Z,1010.04
2023-02-24T01:06:51.453Z,1010.04
2023-02-24T01:07:51.501Z,1010.01
2023-02-24T01:08:51.535Z,1010.00
2023-02-24T01:09:51.550Z,1009.98
2023-02-24T01:10:51.573Z,1010.00
2023-02-24T01:12:51.867Z,1010.00
2023-02-24T01:13:51.649Z,1009.98
2023-02-24T01:14:51.678Z,1009.95
2023-02-24T01:15:51.752Z,1009.95
2023-02-24T01:16:51.737Z,1010.00
2023-02-24T01:17:51.766Z,1009.93
2023-02-24T01:18:51.798Z,1009.87
2023-02-24T01:19:52.167Z,1009.87
2023-02-24T01:20:51.847Z,1009.85
2023-02-24T01:21:51.882Z,1009.74
2023-02-24T01:22:51.902Z,1009.77
2023-02-24T01:23:51.949Z,1009.77
2023-02-24T01:24:51.990Z,1009.77
2023-02-24T01:25:52.000Z,1009.74
2023-02-24T01:26:52.380Z,1009.86
2023-02-24T01:27:52.411Z,1009.82
2023-02-24T01:28:52.084Z,1009.78
2023-02-24T01:29:52.103Z,1009.79
2023-02-24T01:30:52.161Z,1009.76
2023-02-24T01:31:52.276Z,1009.76
2023-02-24T01:32:52.342Z,1009.75
2023-02-24T01:33:52.538Z,1009.75
2023-02-24T01:34:52.286Z,1009.78
2023-02-24T01:35:52.278Z,1009.79
2023-02-24T01:36:52.312Z,1009.83
2023-02-24T01:37:52.333Z,1009.80
2023-02-24T01:38:52.360Z,1009.78
2023-02-24T01:39:52.405Z,1009.78
2023-02-24T01:40:52.691Z,1009.79
2023-02-24T01:41:52.455Z,1009.79
2023-02-24T01:42:52.482Z,1009.79
2023-02-24T01:43:52.514Z,1009.78
2023-02-24T01:44:52.546Z,1009.82
2023-02-24T01:45:52.567Z,1009.77
2023-02-24T01:46:52.645Z,1009.78
2023-02-24T01:47:52.988Z,1009.74
2023-02-24T01:48:52.656Z,1009.71
2023-02-24T01:49:52.687Z,1009.72
2023-02-24T01:50:52.704Z,1009.73
2023-02-24T01:51:52.749Z,1009.70
2023-02-24T01:52:52.774Z,1009.68
2023-02-24T01:54:53.120Z,1009.65
2023-02-24T01:55:52.850Z,1009.65
2023-02-24T01:56:52.900Z,1009.65
2023-02-24T01:57:52.917Z,1009.66
2023-02-24T01:58:52.940Z,1009.61
2023-02-24T01:59:52.974Z,1009.63
2023-02-24T02:00:53.016Z,1009.58
2023-02-24T02:01:53.515Z,1009.59
2023-02-24T02:02:53.211Z,1009.58
2023-02-24T02:03:53.086Z,1009.59
2023-02-24T02:04:53.111Z,1009.53
2023-02-24T02:05:53.142Z,1009.54
2023-02-24T02:06:53.178Z,1009.53
2023-02-24T02:07:53.192Z,1009.49
2023-02-24T02:08:53.529Z,1009.54
2023-02-24T02:09:53.249Z,1009.54
2023-02-24T02:10:53.278Z,1009.54
2023-02-24T02:11:53.320Z,1009.51
2023-02-24T02:12:53.370Z,1009.47
2023-02-24T02:13:53.476Z,1009.46
2023-02-24T02:14:53.400Z,1009.42
2023-02-24T02:15:53.754Z,1009.40
2023-02-24T02:16:53.457Z,1009.41
2023-02-24T02:17:53.517Z,1009.43
2023-02-24T02:18:53.513Z,1009.40
2023-02-24T02:19:53.553Z,1009.39
2023-02-24T02:20:53.575Z,1009.45
2023-02-24T02:21:53.845Z,1009.44
2023-02-24T02:23:53.650Z,1009.38
2023-02-24T02:24:53.677Z,1009.41
2023-02-24T02:26:54.159Z,1009.35
2023-02-24T02:27:53.768Z,1009.34
2023-02-24T02:28:54.157Z,1009.33
2023-02-24T02:29:53.823Z,1009.33
2023-02-24T02:30:53.887Z,1009.30
2023-02-24T02:31:53.961Z,1009.29
2023-02-24T02:32:53.947Z,1009.31
2023-02-24T02:33:53.946Z,1009.31
2023-02-24T02:34:54.261Z,1009.28
2023-02-24T02:35:53.996Z,1009.24
2023-02-24T02:36:54.036Z,1009.26
2023-02-24T02:37:54.057Z,1009.25
2023-02-24T02:38:54.122Z,1009.23
2023-02-24T02:39:54.108Z,1009.23
2023-02-24T02:40:54.457Z,1009.20
2023-02-24T02:41:54.162Z,1009.19
2023-02-24T02:42:54.197Z,1009.21
2023-02-24T02:43:54.218Z,1009.21
2023-02-24T02:44:54.284Z,1009.17
2023-02-24T02:45:54.389Z,1009.20
2023-02-24T02:46:54.302Z,1009.17
2023-02-24T02:47:54.637Z,1009.16
2023-02-24T02:48:54.361Z,1009.16
2023-02-24T02:49:54.401Z,1009.14
2023-02-24T02:50:54.413Z,1009.14
2023-02-24T02:51:54.441Z,1009.07
2023-02-24T02:52:54.472Z,1009.07
2023-02-24T02:53:54.517Z,1009.04
2023-02-24T02:54:54.780Z,1009.02
2023-02-24T02:55:54.558Z,1009.05
2023-02-24T02:56:54.678Z,1009.07
2023-02-24T02:57:54.618Z,1009.06
2023-02-24T02:58:54.647Z,1009.08
2023-02-24T02:59:54.684Z,1009.03
2023-02-24T03:00:54.775Z,1009.01
2023-02-24T03:01:55.035Z,1009.03
2023-02-24T03:02:54.752Z,1009.05
2023-02-24T03:04:54.843Z,1009.03
2023-02-24T03:05:54.841Z,1008.99
2023-02-24T03:06:54.862Z,1008.99
2023-02-24T03:07:54.891Z,1008.96
2023-02-24T03:08:55.177Z,1008.93
2023-02-24T03:09:54.944Z,1008.91
2023-02-24T03:10:54.972Z,1008.88
2023-02-24T03:11:55.006Z,1008.89
2023-02-24T03:12:55.065Z,1008.86
2023-02-24T03:13:55.067Z,1008.86
2023-02-24T03:14:55.094Z,1008.82
2023-02-24T03:15:55.532Z,1008.77
2023-02-24T03:16:55.225Z,1008.76
2023-02-24T03:17:55.178Z,1008.70
2023-02-24T03:18:55.215Z,1008.72
2023-02-24T03:19:55.304Z,1008.72
2023-02-24T03:20:55.287Z,1008.71
2023-02-24T03:21:55.289Z,1008.73
2023-02-24T03:22:55.617Z,1008.76
2023-02-24T03:23:55.362Z,1008.76
2023-02-24T03:24:55.495Z,1008.75
2023-02-24T03:26:55.429Z,1008.69
2023-02-24T03:27:55.458Z,1008.66
2023-02-24T03:28:55.507Z,1008.65
2023-02-24T03:29:55.818Z,1008.66
2023-02-24T03:30:55.634Z,1008.61
2023-02-24T03:31:55.708Z,1008.64
2023-02-24T03:32:55.738Z,1008.64
2023-02-24T03:33:55.636Z,1008.66
2023-02-24T03:34:55.671Z,1008.66
2023-02-24T03:35:55.707Z,1008.64
2023-02-24T03:36:56.020Z,1008.64
2023-02-24T03:37:55.749Z,1008.62
2023-02-24T03:38:55.771Z,1008.61
2023-02-24T03:39:55.808Z,1008.64
2023-02-24T03:40:55.830Z,1008.62
2023-02-24T03:41:55.855Z,1008.65
2023-02-24T03:43:56.212Z,1008.62
2023-02-24T03:46:56.010Z,1008.55
2023-02-24T03:47:56.041Z,1008.56
2023-02-24T03:48:56.070Z,1008.52
2023-02-24T03:49:56.083Z,1008.52
2023-02-24T03:50:56.409Z,1008.47
2023-02-24T03:51:56.439Z,1008.51
2023-02-24T03:52:56.163Z,1008.47
2023-02-24T03:53:56.208Z,1008.49
2023-02-24T03:54:56.233Z,1008.49
2023-02-24T03:55:56.379Z,1008.49
2023-02-24T03:56:56.280Z,1008.52
2023-02-24T03:57:56.910Z,1008.47
2023-02-24T03:58:56.360Z,1008.49
2023-02-24T04:00:56.535Z,1008.48
2023-02-24T04:01:56.454Z,1008.48
2023-02-24T04:02:56.747Z,1008.48
2023-02-24T04:03:56.475Z,1008.48
2023-02-24T04:04:56.888Z,1008.50
2023-02-24T04:05:56.538Z,1008.48
2023-02-24T04:06:56.584Z,1008.44
2023-02-24T04:07:56.585Z,1008.43
2023-02-24T04:08:56.618Z,1008.40
2023-02-24T04:09:56.655Z,1008.43
2023-02-24T04:10:56.674Z,1008.48
2023-02-24T04:11:57.002Z,1008.45
2023-02-24T04:12:56.813Z,1008.47
2023-02-24T04:14:56.788Z,1008.46
2023-02-24T04:15:56.898Z,1008.50
2023-02-24T04:16:56.846Z,1008.46
2023-02-24T04:17:57.169Z,1008.47
2023-02-24T04:18:56.907Z,1008.46
2023-02-24T04:19:56.928Z,1008.49
2023-02-24T04:20:56.980Z,1008.51
2023-02-24T04:21:57.021Z,1008.44
2023-02-24T04:22:57.041Z,1008.41
2023-02-24T04:23:57.398Z,1008.43
2023-02-24T04:24:57.062Z,1008.43
2023-02-24T04:25:57.125Z,1008.45
2023-02-24T04:26:57.130Z,1008.42
2023-02-24T04:27:57.160Z,1008.42
2023-02-24T04:28:57.256Z,1008.41
2023-02-24T04:29:57.507Z,1008.45
2023-02-24T04:30:57.342Z,1008.45
2023-02-24T04:31:57.462Z,1008.41
2023-02-24T04:32:57.357Z,1008.42
2023-02-24T04:33:57.322Z,1008.43
2023-02-24T04:34:57.344Z,1008.41
2023-02-24T04:35:57.383Z,1008.43
2023-02-24T04:36:57.732Z,1008.36
2023-02-24T04:37:57.433Z,1008.36
2023-02-24T04:38:57.462Z,1008.39
2023-02-24T04:39:57.493Z,1008.35
2023-02-24T04:40:57.529Z,1008.31
2023-02-24T04:41:57.550Z,1008.31
2023-02-24T04:43:57.898Z,1008.29
2023-02-24T04:44:57.650Z,1008.27
2023-02-24T04:45:57.670Z,1008.30
2023-02-24T04:46:57.681Z,1008.26
2023-02-24T04:47:57.713Z,1008.21
2023-02-24T04:48:57.747Z,1008.20
2023-02-24T04:49:57.778Z,1008.19
2023-02-24T04:50:58.104Z,1008.16
2023-02-24T04:51:57.833Z,1008.16
2023-02-24T04:52:57.875Z,1008.16
2023-02-24T04:53:57.885Z,1008.12
2023-02-24T04:54:57.906Z,1008.15
2023-02-24T04:55:57.941Z,1008.08
2023-02-24T04:56:59.260Z,1008.10
2023-02-24T04:57:58.277Z,1008.08
2023-02-24T04:58:58.025Z,1008.07
2023-02-24T04:59:58.051Z,1008.07
2023-02-24T05:00:58.083Z,1008.07
2023-02-24T05:02:58.159Z,1008.10
2023-02-24T05:03:58.180Z,1008.10
2023-02-24T05:04:58.568Z,1008.10
2023-02-24T05:06:58.263Z,1008.06
2023-02-24T05:07:58.274Z,1008.09
2023-02-24T05:08:58.320Z,1008.06
2023-02-24T05:09:58.335Z,1008.03
2023-02-24T05:10:58.364Z,1008.07
2023-02-24T05:11:58.698Z,1008.04
2023-02-24T05:12:58.523Z,1008.02
2023-02-24T05:13:58.441Z,1008.01
2023-02-24T05:14:58.478Z,1008.03
2023-02-24T05:16:58.526Z,1008.00
2023-02-24T05:17:58.567Z,1008.01
2023-02-24T05:18:58.885Z,1008.02
2023-02-24T05:19:58.617Z,1007.98
2023-02-24T05:21:00.810Z,1007.99
2023-02-24T05:21:58.673Z,1008.01
2023-02-24T05:22:58.717Z,1008.01
2023-02-24T05:23:58.728Z,1007.97
2023-02-24T05:24:58.777Z,1008.00
2023-02-24T05:25:59.122Z,1007.94
2023-02-24T05:26:58.814Z,1007.98
2023-02-24T05:27:58.847Z,1007.96
2023-02-24T05:28:58.878Z,1007.98
2023-02-24T05:29:58.898Z,1007.97
2023-02-24T05:30:59.043Z,1007.93
2023-02-24T05:31:59.090Z,1007.91
2023-02-24T05:32:59.284Z,1007.91
2023-02-24T05:33:59.034Z,1007.90
2023-02-24T05:34:59.035Z,1007.88
2023-02-24T05:35:59.068Z,1007.85
2023-02-24T05:36:59.123Z,1007.84
2023-02-24T05:37:59.170Z,1007.84
2023-02-24T05:38:59.151Z,1007.86
2023-02-24T05:39:59.171Z,1007.85
2023-02-24T05:40:59.227Z,1007.84
2023-02-24T05:41:59.223Z,1007.87
2023-02-24T05:42:59.263Z,1007.86
2023-02-24T05:43:59.280Z,1007.86
2023-02-24T05:44:59.312Z,1007.84
2023-02-24T05:45:59.647Z,1007.86
2023-02-24T05:46:59.574Z,1007.86
2023-02-24T05:47:59.409Z,1007.88
2023-02-24T05:48:59.417Z,1007.85
2023-02-24T05:49:59.452Z,1007.84
2023-02-24T05:50:59.477Z,1007.80
2023-02-24T05:51:59.810Z,1007.78
2023-02-24T05:52:59.531Z,1007.80
2023-02-24T05:53:59.560Z,1007.78
2023-02-24T05:54:59.591Z,1007.70
2023-02-24T05:55:59.613Z,1007.72
2023-02-24T05:56:59.664Z,1007.67
2023-02-24T05:57:59.672Z,1007.62
2023-02-24T05:58:59.708Z,1007.64
2023-02-24T05:59:59.733Z,1007.57
2023-02-24T06:01:59.846Z,1007.56
2023-02-24T06:04:00.128Z,1007.58
2023-02-24T06:04:59.869Z,1007.56
2023-02-24T06:05:59.998Z,1007.56
2023-02-24T06:07:00.018Z,1007.55
2023-02-24T06:07:59.989Z,1007.53
2023-02-24T06:08:59.979Z,1007.59
2023-02-24T06:12:00.509Z,1007.59
2023-02-24T06:13:00.123Z,1007.57
2023-02-24T06:14:00.124Z,1007.57
2023-02-24T06:15:00.167Z,1007.56
2023-02-24T06:17:00.224Z,1007.61
2023-02-24T06:18:00.561Z,1007.57
2023-02-24T06:20:01.192Z,1007.55
2023-02-24T06:21:00.318Z,1007.49
2023-02-24T06:22:01.694Z,1007.48
2023-02-24T06:24:00.863Z,1007.50
2023-02-24T06:25:00.425Z,1007.53
2023-02-24T06:26:01.339Z,1007.49
2023-02-24T06:27:00.501Z,1007.48
2023-02-24T06:28:00.723Z,1007.47
2023-02-24T06:29:00.572Z,1007.46
2023-02-24T06:30:01.294Z,1007.47
2023-02-24T06:31:00.930Z,1007.43
2023-02-24T06:32:00.784Z,1007.41
2023-02-24T06:33:00.774Z,1007.41
2023-02-24T06:34:00.677Z,1007.36
2023-02-24T06:35:00.719Z,1007.39
2023-02-24T06:37:01.217Z,1007.35
2023-02-24T06:38:00.806Z,1007.34
2023-02-24T06:39:00.858Z,1007.33
2023-02-24T06:40:00.854Z,1007.33
2023-02-24T06:41:00.886Z,1007.30
2023-02-24T06:42:00.908Z,1007.32
2023-02-24T06:43:01.478Z,1007.32
2023-02-24T06:44:00.982Z,1007.33
2023-02-24T06:45:01.024Z,1007.31
2023-02-24T06:46:02.133Z,1007.30
2023-02-24T06:47:01.167Z,1007.31
2023-02-24T06:48:01.134Z,1007.30
2023-02-24T06:50:01.164Z,1007.29
2023-02-24T06:52:01.200Z,1007.32
2023-02-24T06:53:01.229Z,1007.34
2023-02-24T06:55:01.572Z,1007.29
2023-02-24T06:56:01.313Z,1007.31
2023-02-24T06:57:01.335Z,1007.32
2023-02-24T06:58:01.382Z,1007.35
2023-02-24T06:59:01.383Z,1007.39
2023-02-24T07:00:01.429Z,1007.37
2023-02-24T07:04:01.863Z,1007.44
2023-02-24T07:05:01.657Z,1007.41
2023-02-24T07:06:01.571Z,1007.42
2023-02-24T07:07:01.611Z,1007.42
2023-02-24T07:08:01.644Z,1007.45
2023-02-24T07:09:01.654Z,1007.39
2023-02-24T07:10:02.000Z,1007.37
2023-02-24T07:11:01.718Z,1007.36
2023-02-24T07:12:01.745Z,1007.33
2023-02-24T07:13:01.777Z,1007.31
2023-02-24T07:14:01.795Z,1007.30
2023-02-24T07:15:01.837Z,1007.31
2023-02-24T07:16:02.168Z,1007.35
2023-02-24T07:17:01.933Z,1007.34
2023-02-24T07:18:01.969Z,1007.35
2023-02-24T07:19:01.990Z,1007.33
2023-02-24T07:20:01.985Z,1007.32
2023-02-24T07:21:01.994Z,1007.34
2023-02-24T07:22:02.141Z,1007.33
2023-02-24T07:23:02.344Z,1007.31
2023-02-24T07:24:02.071Z,1007.27
2023-02-24T07:25:02.204Z,1007.31
2023-02-24T07:26:02.131Z,1007.30
2023-02-24T07:27:02.451Z,1007.33
2023-02-24T07:28:02.203Z,1007.33
2023-02-24T07:29:02.223Z,1007.30
2023-02-24T07:30:02.554Z,1007.24
2023-02-24T07:31:02.524Z,1007.22
2023-02-24T07:32:02.607Z,1007.23
2023-02-24T07:33:02.324Z,1007.22
2023-02-24T07:34:02.415Z,1007.23
2023-02-24T07:35:02.416Z,1007.19
2023-02-24T07:36:02.484Z,1007.17
2023-02-24T07:37:03.097Z,1007.17
2023-02-24T07:38:02.504Z,1007.15
2023-02-24T07:39:02.493Z,1007.15
2023-02-24T07:40:02.536Z,1007.16
2023-02-24T07:41:02.569Z,1007.10
2023-02-24T07:42:02.591Z,1007.12
2023-02-24T07:43:02.620Z,1007.09
2023-02-24T07:44:02.940Z,1007.09
2023-02-24T07:45:02.765Z,1007.07
2023-02-24T07:46:02.746Z,1007.08
2023-02-24T07:47:02.720Z,1007.04
2023-02-24T07:48:02.742Z,1007.03
2023-02-24T07:49:03.039Z,1006.97
2023-02-24T07:50:02.821Z,1006.93
2023-02-24T07:51:03.127Z,1006.92
2023-02-24T07:52:03.353Z,1006.85
2023-02-24T07:53:02.885Z,1006.89
2023-02-24T07:54:02.927Z,1006.85
2023-02-24T07:55:02.954Z,1006.81
2023-02-24T07:56:02.965Z,1006.83
2023-02-24T07:57:02.990Z,1006.82
2023-02-24T07:58:03.988Z,1006.81
2023-02-24T07:59:03.061Z,1006.82
2023-02-24T08:00:03.080Z,1006.82
2023-02-24T08:01:03.130Z,1006.82
2023-02-24T08:02:03.132Z,1006.79
2023-02-24T08:03:03.181Z,1006.78
2023-02-24T08:04:03.204Z,1006.78
2023-02-24T08:05:03.520Z,1006.77
2023-02-24T08:06:03.353Z,1006.79
2023-02-24T08:07:03.643Z,1006.80
2023-02-24T08:08:03.347Z,1006.76
2023-02-24T08:09:03.319Z,1006.73
2023-02-24T08:10:03.358Z,1006.75
2023-02-24T08:11:03.387Z,1006.71
2023-02-24T08:12:03.717Z,1006.71
2023-02-24T08:13:03.444Z,1006.70
2023-02-24T08:14:03.465Z,1006.70
2023-02-24T08:15:03.599Z,1006.68
2023-02-24T08:16:03.616Z,1006.68
2023-02-24T08:17:03.558Z,1006.66
2023-02-24T08:18:03.580Z,1006.65
2023-02-24T08:19:03.607Z,1006.60
2023-02-24T08:20:03.632Z,1006.56
2023-02-24T08:21:03.658Z,1006.60
2023-02-24T08:22:03.689Z,1006.55
2023-02-24T08:23:03.721Z,1006.57
2023-02-24T08:24:03.765Z,1006.57
2023-02-24T08:25:04.068Z,1006.52
2023-02-24T08:26:03.846Z,1006.54
2023-02-24T08:27:03.951Z,1006.50
2023-02-24T08:28:09.210Z,1006.48
2023-02-24T08:29:03.882Z,1006.45
2023-02-24T08:30:03.921Z,1006.42
2023-02-24T08:31:04.375Z,1006.42
2023-02-24T08:32:04.121Z,1006.40
2023-02-24T08:33:03.997Z,1006.40
2023-02-24T08:34:04.033Z,1006.41
2023-02-24T08:35:04.080Z,1006.39
2023-02-24T08:36:04.147Z,1006.37
2023-02-24T08:37:04.521Z,1006.33
2023-02-24T08:38:04.194Z,1006.32
2023-02-24T08:39:04.207Z,1006.31
2023-02-24T08:40:04.226Z,1006.32
2023-02-24T08:41:04.246Z,1006.31
2023-02-24T08:42:04.255Z,1006.30
2023-02-24T08:43:04.273Z,1006.33
2023-02-24T08:45:04.334Z,1006.25
2023-02-24T08:46:04.394Z,1006.26
2023-02-24T08:47:04.507Z,1006.25
2023-02-24T08:48:04.419Z,1006.26
2023-02-24T08:49:04.441Z,1006.20
2023-02-24T08:50:04.774Z,1006.21
2023-02-24T08:51:04.515Z,1006.19
2023-02-24T08:53:04.558Z,1006.17
2023-02-24T08:54:04.611Z,1006.17
2023-02-24T08:55:04.612Z,1006.17
2023-02-24T08:57:04.991Z,1006.13
2023-02-24T08:58:04.701Z,1006.12
2023-02-24T09:00:04.753Z,1006.11
2023-02-24T09:01:04.843Z,1006.09
2023-02-24T09:02:05.135Z,1006.07
2023-02-24T09:03:04.842Z,1006.04
2023-02-24T09:04:04.872Z,1006.06
2023-02-24T09:05:05.078Z,1006.03
2023-02-24T09:06:05.069Z,1006.04
2023-02-24T09:07:11.803Z,1006.06
2023-02-24T09:08:04.978Z,1006.05
2023-02-24T09:09:05.012Z,1005.97
2023-02-24T09:10:05.343Z,1005.97
2023-02-24T09:11:05.213Z,1005.97
2023-02-24T09:12:05.097Z,1005.97
2023-02-24T09:13:05.138Z,1005.96
2023-02-24T09:14:05.877Z,1005.95
2023-02-24T09:15:05.178Z,1005.94
2023-02-24T09:17:05.542Z,1005.92
2023-02-24T09:18:05.261Z,1005.91
2023-02-24T09:19:05.287Z,1005.94
2023-02-24T09:20:05.325Z,1005.89
2023-02-24T09:21:05.344Z,1005.85
2023-02-24T09:22:10.409Z,1005.86
2023-02-24T09:23:05.397Z,1005.81
2023-02-24T09:24:05.677Z,1005.77
2023-02-24T09:25:05.456Z,1005.79
2023-02-24T09:27:05.510Z,1005.77
2023-02-24T09:28:05.533Z,1005.75
2023-02-24T09:29:05.582Z,1005.78
2023-02-24T09:31:05.965Z,1005.83
2023-02-24T09:32:05.903Z,1005.85
2023-02-24T09:33:05.851Z,1005.88
2023-02-24T09:34:05.701Z,1005.90
2023-02-24T09:35:05.738Z,1005.90
2023-02-24T09:36:05.757Z,1005.86
2023-02-24T09:37:06.138Z,1005.86
2023-02-24T09:38:05.817Z,1005.79
2023-02-24T09:39:05.846Z,1005.81
2023-02-24T09:40:05.870Z,1005.76
2023-02-24T09:41:18.338Z,1005.79
2023-02-24T09:42:05.929Z,1005.79
2023-02-24T09:43:05.952Z,1005.77
2023-02-24T09:44:06.001Z,1005.77
2023-02-24T09:45:06.032Z,1005.75
2023-02-24T09:46:06.172Z,1005.72
2023-02-24T09:47:06.140Z,1005.73
2023-02-24T09:48:06.093Z,1005.70
2023-02-24T09:49:06.439Z,1005.72
2023-02-24T09:50:06.161Z,1005.71
2023-02-24T09:52:06.206Z,1005.71
2023-02-24T09:53:11.145Z,1005.71
2023-02-24T09:54:06.262Z,1005.67
2023-02-24T09:55:06.288Z,1005.63
2023-02-24T09:56:06.647Z,1005.63
2023-02-24T09:57:06.378Z,1005.68
2023-02-24T09:58:06.365Z,1005.67
2023-02-24T09:59:06.392Z,1005.61
2023-02-24T10:00:06.426Z,1005.62
2023-02-24T10:01:06.494Z,1005.65
2023-02-24T10:02:06.547Z,1005.64
2023-02-24T10:03:06.862Z,1005.60
2023-02-24T10:04:18.654Z,1005.54
2023-02-24T10:05:06.573Z,1005.49
2023-02-24T10:06:06.601Z,1005.45
2023-02-24T10:07:06.630Z,1005.48
2023-02-24T10:08:06.747Z,1005.45
2023-02-24T10:09:06.678Z,1005.48
2023-02-24T10:10:07.033Z,1005.41
2023-02-24T10:11:06.728Z,1005.39
2023-02-24T10:12:06.764Z,1005.37
2023-02-24T10:13:06.794Z,1005.33
2023-02-24T10:14:06.904Z,1005.36
2023-02-24T10:15:06.847Z,1005.32
2023-02-24T10:16:07.397Z,1005.32
2023-02-24T10:17:07.228Z,1005.30
2023-02-24T10:18:06.931Z,1005.31
2023-02-24T10:19:06.955Z,1005.28
2023-02-24T10:20:06.997Z,1005.28
2023-02-24T10:21:07.098Z,1005.22
2023-02-24T10:22:07.036Z,1005.21
2023-02-24T10:23:07.077Z,1005.21
2023-02-24T10:24:07.392Z,1005.18
2023-02-24T10:26:07.517Z,1005.17
2023-02-24T10:27:08.995Z,1005.18
2023-02-24T10:28:07.219Z,1005.17
2023-02-24T10:29:07.245Z,1005.15
2023-02-24T10:30:07.264Z,1005.18
2023-02-24T10:31:07.725Z,1005.16
2023-02-24T10:32:07.604Z,1005.12
2023-02-24T10:33:07.380Z,1005.12
2023-02-24T10:34:07.369Z,1005.11
2023-02-24T10:35:07.408Z,1005.10
2023-02-24T10:36:07.423Z,1005.06
2023-02-24T10:38:07.791Z,1005.07
2023-02-24T10:39:07.507Z,1005.03
2023-02-24T10:40:07.537Z,1005.03
2023-02-24T10:41:07.568Z,1005.02
2023-02-24T10:43:07.638Z,1005.02
2023-02-24T10:44:07.661Z,1004.99
2023-02-24T10:45:09.744Z,1004.97
2023-02-24T10:46:07.786Z,1004.99
2023-02-24T10:48:08.556Z,1004.97
2023-02-24T10:49:07.808Z,1004.96
2023-02-24T10:50:07.816Z,1004.93
2023-02-24T10:51:07.854Z,1004.95
2023-02-24T10:52:08.177Z,1004.93
2023-02-24T10:53:07.901Z,1004.92
2023-02-24T10:54:07.982Z,1004.89
2023-02-24T10:55:07.959Z,1004.92
2023-02-24T10:56:07.990Z,1004.86
2023-02-24T10:57:08.117Z,1004.85
2023-02-24T10:58:08.035Z,1004.82
2023-02-24T10:59:08.376Z,1004.80
2023-02-24T11:00:08.089Z,1004.75
2023-02-24T11:01:08.139Z,1004.76
2023-02-24T11:02:08.184Z,1004.71
2023-02-24T11:03:08.212Z,1004.73
2023-02-24T11:04:08.195Z,1004.72
2023-02-24T11:05:08.238Z,1004.66
2023-02-24T11:06:08.580Z,1004.64
2023-02-24T11:07:08.286Z,1004.61
2023-02-24T11:08:08.300Z,1004.60
2023-02-24T11:09:08.337Z,1004.65
2023-02-24T11:10:10.349Z,1004.58
2023-02-24T11:11:08.379Z,1004.61
2023-02-24T11:12:08.422Z,1004.53
2023-02-24T11:13:10.265Z,1004.56
2023-02-24T11:14:08.472Z,1004.56
2023-02-24T11:15:08.511Z,1004.50
2023-02-24T11:16:08.599Z,1004.52
2023-02-24T11:17:08.574Z,1004.48
2023-02-24T11:19:08.907Z,1004.49
2023-02-24T11:20:08.632Z,1004.45
2023-02-24T11:21:08.698Z,1004.45
2023-02-24T11:22:08.685Z,1004.40
2023-02-24T11:23:08.723Z,1004.37
2023-02-24T11:24:08.734Z,1004.38
2023-02-24T11:25:09.067Z,1004.36
2023-02-24T11:26:08.789Z,1004.33
2023-02-24T11:27:08.832Z,1004.34
2023-02-24T11:29:08.882Z,1004.30
2023-02-24T11:30:08.911Z,1004.28
2023-02-24T11:31:09.371Z,1004.25
2023-02-24T11:32:09.243Z,1004.25
2023-02-24T11:33:08.996Z,1004.22
2023-02-24T11:34:09.426Z,1004.17
2023-02-24T11:35:09.478Z,1004.17
2023-02-24T11:36:09.064Z,1004.13
2023-02-24T11:37:09.146Z,1004.05
2023-02-24T11:38:09.419Z,1004.06
2023-02-24T11:39:18.714Z,1004.03
2023-02-24T11:40:09.528Z,1003.99
2023-02-24T11:41:09.458Z,1004.01
2023-02-24T11:42:09.388Z,1003.93
2023-02-24T11:43:09.254Z,1003.94
2023-02-24T11:44:09.305Z,1003.93
2023-02-24T11:45:09.641Z,1003.88
2023-02-24T11:46:09.368Z,1003.92
2023-02-24T11:47:09.366Z,1003.87
2023-02-24T11:48:09.397Z,1003.85
2023-02-24T11:49:09.423Z,1003.83
2023-02-24T11:50:09.543Z,1003.80
2023-02-24T11:51:09.493Z,1003.80
2023-02-24T11:52:09.754Z,1003.76
2023-02-24T11:53:09.553Z,1003.78
2023-02-24T11:54:09.597Z,1003.70
2023-02-24T11:55:09.589Z,1003.71
2023-02-24T11:56:09.608Z,1003.70
2023-02-24T11:57:09.657Z,1003.65
2023-02-24T11:58:09.671Z,1003.65
2023-02-24T11:59:09.956Z,1003.64
2023-02-24T12:00:09.728Z,1003.66
2023-02-24T12:01:09.739Z,1003.60
2023-02-24T12:02:09.780Z,1003.63
2023-02-24T12:03:09.881Z,1003.59
2023-02-24T12:04:09.831Z,1003.57
2023-02-24T12:06:10.341Z,1003.56
2023-02-24T12:08:09.934Z,1003.47
2023-02-24T12:10:17.051Z,1003.48
2023-02-24T12:12:12.267Z,1003.39
2023-02-24T12:13:10.069Z,1003.40
2023-02-24T12:14:10.094Z,1003.34
2023-02-24T12:15:10.122Z,1003.34
2023-02-24T12:16:10.217Z,1003.34
2023-02-24T12:17:10.183Z,1003.30
2023-02-24T12:18:11.770Z,1003.28
2023-02-24T12:19:10.231Z,1003.26
2023-02-24T12:20:10.280Z,1003.30
2023-02-24T12:21:10.302Z,1003.24
2023-02-24T12:22:10.322Z,1003.25
2023-02-24T12:23:10.343Z,1003.22
2023-02-24T12:24:10.367Z,1003.22
2023-02-24T12:25:10.670Z,1003.18
2023-02-24T12:26:10.484Z,1003.21
2023-02-24T12:27:10.507Z,1003.17
2023-02-24T12:28:10.481Z,1003.19
2023-02-24T12:29:10.587Z,1003.18
2023-02-24T12:30:10.523Z,1003.15
2023-02-24T12:31:10.781Z,1003.15
2023-02-24T12:32:10.886Z,1003.13
2023-02-24T12:33:10.747Z,1003.13
2023-02-24T12:34:10.801Z,1003.07
2023-02-24T12:35:10.669Z,1003.10
2023-02-24T12:36:10.851Z,1003.04
2023-02-24T12:37:10.722Z,1003.07
2023-02-24T12:38:11.073Z,1002.99
2023-02-24T12:39:10.774Z,1003.02
2023-02-24T12:40:10.798Z,1003.00
2023-02-24T12:41:10.825Z,1003.01
2023-02-24T12:42:10.865Z,1002.97
2023-02-24T12:43:11.288Z,1003.03
2023-02-24T12:44:10.901Z,1003.00
2023-02-24T12:45:10.939Z,1003.03
2023-02-24T12:46:11.047Z,1002.96
2023-02-24T12:47:10.998Z,1002.98
2023-02-24T12:48:11.009Z,1002.99
2023-02-24T12:49:11.032Z,1002.97
2023-02-24T12:50:11.363Z,1002.94
2023-02-24T12:51:11.102Z,1002.96
2023-02-24T12:52:11.318Z,1002.95
2023-02-24T12:53:11.145Z,1002.91
2023-02-24T12:54:11.173Z,1002.92